createdAt,value
2018-03-15T00:00:11.401Z,9.60
2018-03-15T00:02:40.144Z,9.60
2018-03-15T00:05:09.109Z,9.60
2018-03-15T00:07:37.977Z,9.60
2018-03-15T00:10:06.845Z,9.60
2018-03-15T00:12:35.695Z,9.60
2018-03-15T00:15:05.365Z,9.60
2018-03-15T00:17:34.238Z,9.50
2018-03-15T00:20:03.338Z,9.50
2018-03-15T00:22:33.603Z,9.40
2018-03-15T00:25:02.566Z,9.40
2018-03-15T00:27:31.402Z,9.40
2018-03-15T00:30:01.073Z,9.20
2018-03-15T00:32:30.525Z,9.20
2018-03-15T00:35:00.206Z,9.20
2018-03-15T00:37:29.294Z,9.20
2018-03-15T00:39:58.365Z,9.20
2018-03-15T00:42:28.366Z,9.10
2018-03-15T00:44:57.150Z,9.00
2018-03-15T00:47:25.961Z,9.00
2018-03-15T00:49:54.938Z,8.90
2018-03-15T00:52:23.704Z,8.90
2018-03-15T00:54:53.712Z,9.00
2018-03-15T00:57:22.534Z,8.90
2018-03-15T00:59:51.310Z,9.00
2018-03-15T01:02:20.162Z,9.00
2018-03-15T01:04:48.945Z,9.00
2018-03-15T01:07:18.018Z,9.10
2018-03-15T01:09:46.861Z,9.10
2018-03-15T01:12:16.548Z,9.10
2018-03-15T01:14:46.157Z,9.10
2018-03-15T01:17:14.967Z,9.10
2018-03-15T01:19:43.921Z,9.20
2018-03-15T01:22:13.546Z,9.20
2018-03-15T01:24:43.209Z,9.20
2018-03-15T01:27:13.076Z,9.00
2018-03-15T01:29:43.041Z,9.00
2018-03-15T01:32:12.057Z,9.00
2018-03-15T01:34:40.908Z,8.90
2018-03-15T01:39:44.953Z,8.90
2018-03-15T01:42:14.658Z,9.20
2018-03-15T01:44:43.567Z,9.20
2018-03-15T01:47:13.368Z,9.10
2018-03-15T01:49:42.250Z,9.00
2018-03-15T01:52:11.890Z,8.90
2018-03-15T01:54:41.554Z,8.70
2018-03-15T01:57:10.717Z,8.70
2018-03-15T01:59:39.632Z,8.70
2018-03-15T02:02:08.730Z,8.90
2018-03-15T02:04:38.745Z,8.70
2018-03-15T02:07:07.650Z,8.60
2018-03-15T02:09:36.552Z,8.50
2018-03-15T02:12:05.464Z,8.60
2018-03-15T02:14:34.311Z,8.50
2018-03-15T02:17:03.080Z,8.60
2018-03-15T02:19:31.957Z,8.80
2018-03-15T02:22:00.979Z,8.90
2018-03-15T02:24:29.881Z,8.70
2018-03-15T02:26:58.672Z,8.60
2018-03-15T02:29:27.546Z,8.50
2018-03-15T02:31:57.214Z,8.30
2018-03-15T02:34:26.060Z,8.30
2018-03-15T02:36:55.137Z,8.30
2018-03-15T02:39:24.892Z,8.30
2018-03-15T02:41:54.789Z,8.20
2018-03-15T02:44:23.820Z,8.20
2018-03-15T02:46:52.769Z,8.30
2018-03-15T02:49:21.544Z,8.30
2018-03-15T02:51:51.362Z,8.30
2018-03-15T02:54:20.298Z,8.30
2018-03-15T02:56:49.964Z,8.20
2018-03-15T02:59:18.777Z,8.20
2018-03-15T03:01:47.733Z,8.40
2018-03-15T03:04:16.546Z,8.60
2018-03-15T03:06:46.242Z,8.60
2018-03-15T03:09:15.141Z,8.60
2018-03-15T03:11:43.968Z,8.60
2018-03-15T03:14:13.799Z,8.50
2018-03-15T03:16:42.716Z,8.50
2018-03-15T03:19:11.615Z,8.50
2018-03-15T03:21:40.742Z,8.40
2018-03-15T03:24:09.847Z,8.20
2018-03-15T03:26:38.813Z,8.10
2018-03-15T03:29:08.037Z,8.10
2018-03-15T03:31:36.919Z,8.20
2018-03-15T03:34:05.824Z,8.20
2018-03-15T03:36:34.859Z,8.10
2018-03-15T03:39:04.573Z,8.10
2018-03-15T03:41:33.428Z,8.10
2018-03-15T03:44:02.299Z,8.10
2018-03-15T03:46:31.876Z,8.00
2018-03-15T03:49:00.756Z,8.00
2018-03-15T03:51:29.588Z,7.90
2018-03-15T03:53:59.429Z,7.90
2018-03-15T03:56:28.470Z,7.90
2018-03-15T03:58:57.348Z,7.90
2018-03-15T04:01:26.257Z,7.80
2018-03-15T04:03:55.151Z,7.90
2018-03-15T04:06:24.001Z,7.90
2018-03-15T04:08:53.783Z,7.90
2018-03-15T04:11:22.675Z,7.90
2018-03-15T04:13:51.619Z,8.00
2018-03-15T04:16:20.650Z,8.00
2018-03-15T04:18:49.588Z,8.10
2018-03-15T04:21:19.273Z,8.10
2018-03-15T04:23:48.281Z,8.10
2018-03-15T04:26:17.316Z,8.10
2018-03-15T04:28:46.152Z,7.90
2018-03-15T04:31:14.997Z,7.80
2018-03-15T04:33:44.137Z,7.70
2018-03-15T04:36:13.085Z,7.70
2018-03-15T04:38:42.142Z,7.70
2018-03-15T04:41:12.166Z,7.70
2018-03-15T04:43:41.656Z,7.70
2018-03-15T04:46:10.766Z,7.80
2018-03-15T04:48:40.511Z,8.00
2018-03-15T04:51:10.212Z,8.40
2018-03-15T04:53:39.049Z,8.30
2018-03-15T04:56:08.861Z,8.80
2018-03-15T04:58:38.529Z,8.70
2018-03-15T05:01:07.669Z,8.70
2018-03-15T05:03:37.523Z,9.40
2018-03-15T05:06:06.382Z,9.40
2018-03-15T05:08:36.078Z,10.30
2018-03-15T05:11:05.792Z,10.60
2018-03-15T05:13:35.423Z,10.80
2018-03-15T05:16:04.514Z,10.80
2018-03-15T05:18:34.118Z,10.80
2018-03-15T05:21:03.020Z,10.70
2018-03-15T05:23:31.906Z,10.50
2018-03-15T05:26:01.700Z,10.30
2018-03-15T05:28:30.570Z,10.30
2018-03-15T05:30:59.724Z,10.20
2018-03-15T05:33:28.718Z,10.20
2018-03-15T05:35:57.514Z,10.20
2018-03-15T05:38:26.482Z,10.20
2018-03-15T05:40:55.493Z,10.20
2018-03-15T05:43:24.591Z,10.20
2018-03-15T05:45:53.503Z,10.20
2018-03-15T05:48:22.375Z,10.20
2018-03-15T05:50:51.224Z,10.30
2018-03-15T05:53:20.844Z,10.40
2018-03-15T05:55:50.513Z,10.60
2018-03-15T05:58:19.481Z,10.50
2018-03-15T06:00:48.581Z,10.70
2018-03-15T06:03:17.873Z,10.70
2018-03-15T06:05:46.792Z,10.80
2018-03-15T06:08:15.580Z,11.00
2018-03-15T06:10:44.447Z,11.10
2018-03-15T06:13:13.316Z,11.20
2018-03-15T06:15:42.418Z,11.20
2018-03-15T06:18:11.398Z,11.30
2018-03-15T06:20:40.277Z,11.40
2018-03-15T06:23:09.364Z,11.50
2018-03-15T06:25:39.177Z,11.60
2018-03-15T06:28:08.902Z,11.70
2018-03-15T06:30:38.205Z,11.60
2018-03-15T06:33:07.129Z,11.80
2018-03-15T06:35:35.932Z,11.90
2018-03-15T06:38:05.178Z,11.90
2018-03-15T06:40:34.081Z,11.90
2018-03-15T06:43:03.244Z,11.80
2018-03-15T06:45:33.081Z,11.80
2018-03-15T06:48:02.194Z,11.70
2018-03-15T06:50:31.582Z,11.80
2018-03-15T06:53:00.458Z,11.90
2018-03-15T06:55:29.466Z,11.90
2018-03-15T06:57:59.074Z,11.90
2018-03-15T07:00:27.917Z,11.90
2018-03-15T07:02:56.764Z,11.60
2018-03-15T07:05:25.790Z,11.60
2018-03-15T07:07:54.896Z,11.90
2018-03-15T07:10:23.949Z,12.00
2018-03-15T07:12:52.800Z,12.00
2018-03-15T07:15:21.689Z,12.20
2018-03-15T07:17:50.652Z,12.30
2018-03-15T07:20:19.544Z,12.50
2018-03-15T07:22:48.408Z,12.70
2018-03-15T07:25:17.248Z,12.90
2018-03-15T07:27:46.106Z,12.90
2018-03-15T07:30:14.953Z,13.10
2018-03-15T07:32:44.142Z,13.30
2018-03-15T07:35:13.502Z,13.50
2018-03-15T07:37:42.586Z,13.70
2018-03-15T07:40:11.557Z,13.80
2018-03-15T07:42:40.826Z,13.80
2018-03-15T07:45:09.929Z,14.00
2018-03-15T07:47:39.588Z,14.20
2018-03-15T07:50:08.587Z,14.20
2018-03-15T07:52:38.354Z,14.40
2018-03-15T07:55:07.265Z,14.40
2018-03-15T07:57:36.140Z,14.60
2018-03-15T08:00:05.342Z,14.70
2018-03-15T08:02:35.338Z,15.10
2018-03-15T08:05:04.804Z,15.10
2018-03-15T08:07:33.737Z,14.90
2018-03-15T08:10:03.397Z,15.10
2018-03-15T08:12:32.273Z,15.00
2018-03-15T08:15:01.292Z,15.00
2018-03-15T08:17:31.068Z,14.70
2018-03-15T08:19:59.922Z,14.70
2018-03-15T08:22:29.531Z,14.40
2018-03-15T08:24:58.349Z,14.40
2018-03-15T08:27:28.048Z,14.40
2018-03-15T08:29:57.714Z,14.20
2018-03-15T08:32:26.678Z,14.10
2018-03-15T08:34:55.602Z,14.10
2018-03-15T08:37:25.068Z,14.10
2018-03-15T08:39:54.172Z,14.20
2018-03-15T08:42:23.136Z,14.00
2018-03-15T08:44:52.956Z,13.90
2018-03-15T08:47:21.809Z,13.90
2018-03-15T08:49:51.431Z,14.10
2018-03-15T08:52:20.346Z,14.10
2018-03-15T08:54:50.156Z,14.00
2018-03-15T08:57:19.055Z,13.90
2018-03-15T08:59:49.038Z,13.80
2018-03-15T09:02:17.966Z,13.80
2018-03-15T09:04:46.980Z,13.80
2018-03-15T09:07:16.248Z,13.90
2018-03-15T09:09:45.241Z,13.90
2018-03-15T09:12:14.435Z,13.90
2018-03-15T09:14:43.362Z,13.90
2018-03-15T09:17:12.279Z,13.70
2018-03-15T09:19:41.430Z,13.60
2018-03-15T09:22:12.149Z,13.50
2018-03-15T09:24:41.104Z,13.50
2018-03-15T09:27:10.715Z,13.60
2018-03-15T09:29:40.344Z,13.60
2018-03-15T09:32:09.264Z,13.60
2018-03-15T09:34:38.979Z,13.60
2018-03-15T09:37:07.937Z,13.60
2018-03-15T09:39:37.017Z,13.50
2018-03-15T09:42:06.482Z,13.50
2018-03-15T09:44:36.248Z,13.70
2018-03-15T09:47:05.118Z,13.80
2018-03-15T09:49:34.029Z,13.80
2018-03-15T09:52:03.101Z,13.80
2018-03-15T09:54:33.073Z,12.90
2018-03-15T09:57:02.712Z,12.80
2018-03-15T09:59:32.456Z,12.80
2018-03-15T10:02:02.145Z,12.90
2018-03-15T10:04:32.044Z,13.10
2018-03-15T10:07:00.907Z,13.00
2018-03-15T10:09:29.793Z,13.30
2018-03-15T10:11:59.008Z,13.30
2018-03-15T10:14:29.001Z,13.20
2018-03-15T10:16:57.960Z,13.20
2018-03-15T10:19:27.718Z,13.00
2018-03-15T10:21:56.506Z,13.00
2018-03-15T10:24:25.704Z,12.90
2018-03-15T10:26:55.380Z,12.70
2018-03-15T10:29:25.298Z,12.50
2018-03-15T10:31:54.296Z,12.50
2018-03-15T10:34:24.239Z,12.50
2018-03-15T10:36:53.817Z,12.40
2018-03-15T10:39:24.260Z,12.40
2018-03-15T10:41:53.112Z,12.40
2018-03-15T10:44:22.411Z,12.40
2018-03-15T10:46:51.434Z,12.50
2018-03-15T10:49:20.340Z,12.50
2018-03-15T10:51:50.143Z,13.00
2018-03-15T10:54:18.968Z,13.00
2018-03-15T10:56:47.996Z,13.30
2018-03-15T10:59:18.144Z,13.50
2018-03-15T11:01:49.879Z,13.50
2018-03-15T11:04:18.868Z,13.70
2018-03-15T11:06:53.577Z,13.90
2018-03-15T11:09:24.016Z,14.10
2018-03-15T11:11:53.124Z,14.10
2018-03-15T11:14:22.217Z,14.40
2018-03-15T11:16:51.221Z,14.60
2018-03-15T11:19:20.100Z,14.60
2018-03-15T11:21:49.010Z,14.70
2018-03-15T11:24:17.900Z,14.80
2018-03-15T11:26:46.868Z,15.00
2018-03-15T11:29:16.033Z,15.20
2018-03-15T11:31:45.848Z,15.30
2018-03-15T11:34:15.073Z,15.30
2018-03-15T11:36:43.999Z,15.30
2018-03-15T11:39:12.995Z,15.20
2018-03-15T11:41:42.673Z,15.20
2018-03-15T11:44:11.953Z,15.10
2018-03-15T11:46:40.832Z,15.10
2018-03-15T11:49:09.706Z,15.10
2018-03-15T11:51:38.737Z,15.40
2018-03-15T11:54:08.364Z,15.80
2018-03-15T11:56:38.455Z,15.90
2018-03-15T11:59:07.376Z,15.80
2018-03-15T12:01:36.498Z,16.00
2018-03-15T12:04:05.456Z,16.00
2018-03-15T12:06:34.656Z,16.50
2018-03-15T12:09:03.729Z,16.40
2018-03-15T12:11:32.943Z,16.20
2018-03-15T12:14:01.838Z,16.20
2018-03-15T12:16:30.708Z,16.50
2018-03-15T12:19:04.421Z,16.80
2018-03-15T12:21:33.233Z,17.00
2018-03-15T12:24:02.182Z,16.80
2018-03-15T12:26:31.085Z,16.80
2018-03-15T12:29:00.143Z,16.50
2018-03-15T12:31:29.066Z,16.10
2018-03-15T12:33:58.677Z,16.30
2018-03-15T12:36:27.974Z,16.30
2018-03-15T12:38:57.606Z,16.30
2018-03-15T12:41:26.687Z,16.30
2018-03-15T12:43:56.337Z,16.50
2018-03-15T12:46:25.217Z,16.50
2018-03-15T12:48:54.174Z,16.40
2018-03-15T12:51:23.797Z,16.90
2018-03-15T12:53:53.604Z,17.30
2018-03-15T12:56:23.226Z,17.40
2018-03-15T12:58:52.397Z,17.40
2018-03-15T13:01:21.520Z,17.40
2018-03-15T13:03:50.638Z,17.40
2018-03-15T13:06:19.864Z,17.50
2018-03-15T13:08:50.211Z,17.60
2018-03-15T13:11:19.182Z,17.40
2018-03-15T13:13:48.320Z,17.40
2018-03-15T13:16:17.404Z,17.70
2018-03-15T13:18:46.213Z,17.50
2018-03-15T13:21:16.035Z,17.70
2018-03-15T13:23:44.862Z,17.70
2018-03-15T13:26:13.710Z,17.80
2018-03-15T13:28:42.873Z,17.70
2018-03-15T13:31:12.756Z,17.30
2018-03-15T13:33:41.605Z,17.30
2018-03-15T13:36:10.569Z,17.10
2018-03-15T13:38:39.860Z,17.30
2018-03-15T13:41:08.973Z,17.30
2018-03-15T13:43:38.661Z,17.40
2018-03-15T13:46:07.607Z,17.30
2018-03-15T13:48:36.516Z,17.30
2018-03-15T13:51:06.324Z,17.20
2018-03-15T13:53:35.144Z,17.10
2018-03-15T13:56:04.102Z,17.10
2018-03-15T13:58:33.073Z,17.10
2018-03-15T14:01:01.944Z,17.10
2018-03-15T14:03:33.938Z,16.90
2018-03-15T14:06:03.010Z,16.90
2018-03-15T14:08:31.957Z,16.90
2018-03-15T14:11:01.272Z,16.80
2018-03-15T14:13:30.047Z,16.80
2018-03-15T14:15:59.189Z,16.80
2018-03-15T14:18:28.802Z,16.90
2018-03-15T14:20:58.511Z,17.00
2018-03-15T14:23:27.370Z,17.00
2018-03-15T14:25:57.219Z,16.80
2018-03-15T14:28:26.857Z,16.80
2018-03-15T14:30:55.660Z,16.80
2018-03-15T14:33:24.504Z,16.60
2018-03-15T14:35:54.366Z,16.60
2018-03-15T14:38:23.228Z,16.60
2018-03-15T14:40:53.088Z,16.20
2018-03-15T14:43:22.286Z,16.20
2018-03-15T14:45:51.904Z,16.30
2018-03-15T14:48:21.555Z,16.30
2018-03-15T14:50:50.401Z,16.30
2018-03-15T14:53:20.095Z,16.00
2018-03-15T14:55:48.973Z,16.00
2018-03-15T14:58:17.887Z,15.90
2018-03-15T15:00:46.948Z,15.90
2018-03-15T15:03:16.318Z,16.00
2018-03-15T15:05:45.908Z,15.70
2018-03-15T15:08:14.934Z,15.70
2018-03-15T15:10:44.594Z,15.60
2018-03-15T15:13:14.200Z,15.60
2018-03-15T15:15:43.433Z,15.60
2018-03-15T15:18:12.366Z,15.40
2018-03-15T15:20:41.352Z,15.40
2018-03-15T15:23:10.919Z,15.00
2018-03-15T15:25:40.507Z,15.00
2018-03-15T15:28:09.417Z,15.00
2018-03-15T15:30:38.360Z,14.90
2018-03-15T15:33:07.186Z,14.80
2018-03-15T15:35:36.100Z,14.70
2018-03-15T15:38:05.113Z,14.60
2018-03-15T15:40:34.174Z,14.50
2018-03-15T15:43:04.434Z,14.40
2018-03-15T15:45:35.304Z,14.30
2018-03-15T15:48:04.277Z,14.20
2018-03-15T15:50:33.364Z,14.20
2018-03-15T15:53:02.288Z,14.10
2018-03-15T15:55:31.405Z,13.90
2018-03-15T15:58:01.214Z,13.80
2018-03-15T16:00:30.324Z,13.70
2018-03-15T16:02:59.217Z,13.70
2018-03-15T16:05:28.116Z,13.60
2018-03-15T16:07:58.836Z,13.50
2018-03-15T16:10:27.824Z,13.40
2018-03-15T16:12:57.012Z,13.40
2018-03-15T16:15:25.920Z,13.40
2018-03-15T16:17:54.824Z,13.40
2018-03-15T16:20:24.742Z,13.20
2018-03-15T16:22:54.466Z,13.20
2018-03-15T16:25:23.617Z,13.20
2018-03-15T16:27:54.141Z,13.00
2018-03-15T16:30:23.909Z,12.90
2018-03-15T16:32:52.988Z,12.90
2018-03-15T16:35:21.908Z,12.90
2018-03-15T16:37:51.647Z,12.90
2018-03-15T16:40:21.246Z,12.80
2018-03-15T16:42:51.068Z,12.70
2018-03-15T16:45:20.058Z,12.70
2018-03-15T16:47:49.060Z,12.70
2018-03-15T16:50:18.097Z,12.70
2018-03-15T16:52:47.084Z,12.70
2018-03-15T16:55:16.001Z,12.80
2018-03-15T16:57:44.884Z,12.80
2018-03-15T17:00:13.911Z,12.70
2018-03-15T17:02:43.500Z,12.70
2018-03-15T17:05:13.233Z,12.70
2018-03-15T17:07:42.852Z,12.70
2018-03-15T17:10:11.703Z,12.70
2018-03-15T17:12:40.867Z,12.70
2018-03-15T17:15:09.907Z,12.70
2018-03-15T17:17:38.745Z,12.70
2018-03-15T17:20:07.605Z,12.70
2018-03-15T17:22:36.527Z,12.70
2018-03-15T17:25:05.501Z,12.70
2018-03-15T17:27:34.365Z,12.70
2018-03-15T17:30:04.336Z,12.60
2018-03-15T17:32:33.404Z,12.60
2018-03-15T17:35:02.269Z,12.60
2018-03-15T17:37:31.183Z,12.50
2018-03-15T17:40:00.821Z,12.40
2018-03-15T17:42:29.615Z,12.40
2018-03-15T17:44:58.720Z,12.40
2018-03-15T17:47:27.841Z,12.30
2018-03-15T17:49:56.872Z,12.20
2018-03-15T17:52:26.040Z,12.10
2018-03-15T17:54:55.026Z,12.10
2018-03-15T17:57:23.920Z,12.00
2018-03-15T17:59:52.867Z,11.90
2018-03-15T18:02:22.083Z,11.90
2018-03-15T18:04:51.460Z,11.90
2018-03-15T18:07:20.843Z,11.80
2018-03-15T18:09:49.977Z,11.80
2018-03-15T18:25:19.267Z,11.70
2018-03-15T18:27:48.703Z,11.40
2018-03-15T18:30:18.748Z,11.40
2018-03-15T18:32:48.073Z,11.30
2018-03-15T18:35:18.229Z,11.30
2018-03-15T18:37:47.713Z,11.30
2018-03-15T18:40:17.047Z,11.30
2018-03-15T18:42:46.420Z,11.40
2018-03-15T18:45:15.715Z,11.40
2018-03-15T18:47:45.399Z,11.40
2018-03-15T18:50:15.260Z,11.40
2018-03-15T18:52:44.683Z,11.40
2018-03-15T18:55:14.049Z,11.40
2018-03-15T18:57:44.000Z,11.50
2018-03-15T19:00:13.300Z,11.40
2018-03-15T19:02:43.309Z,11.40
2018-03-15T19:05:13.080Z,11.40
2018-03-15T19:07:42.324Z,11.30
2018-03-15T19:10:11.732Z,11.20
2018-03-15T19:12:41.068Z,11.20
2018-03-15T19:17:45.740Z,11.10
2018-03-15T19:20:15.065Z,11.00
2018-03-15T19:22:44.343Z,10.90
2018-03-15T19:25:13.643Z,10.80
2018-03-15T19:27:42.828Z,10.80
2018-03-15T19:30:12.131Z,10.60
2018-03-15T19:32:41.553Z,10.60
2018-03-15T19:35:10.750Z,10.60
2018-03-15T19:37:40.119Z,10.50
2018-03-15T19:40:09.452Z,10.50
2018-03-15T19:42:38.864Z,10.50
2018-03-15T19:45:08.355Z,10.40
2018-03-15T19:47:37.981Z,10.20
2018-03-15T19:50:08.469Z,10.00
2018-03-15T19:52:38.414Z,10.00
2018-03-15T19:55:07.803Z,9.90
2018-03-15T19:57:38.667Z,9.80
2018-03-15T20:00:09.889Z,9.70
2018-03-15T20:02:40.044Z,9.70
2018-03-15T20:05:09.359Z,9.60
2018-03-15T20:07:38.759Z,9.60
2018-03-15T20:10:09.161Z,9.60
2018-03-15T20:12:38.848Z,9.50
2018-03-15T20:15:08.323Z,9.60
2018-03-15T20:17:39.351Z,9.60
2018-03-15T20:20:11.094Z,9.60
2018-03-15T20:22:46.643Z,9.60
2018-03-15T20:25:15.693Z,9.60
2018-03-15T20:27:50.439Z,9.60
2018-03-15T20:30:19.473Z,9.60
2018-03-15T20:32:54.276Z,9.50
2018-03-15T20:35:23.276Z,9.50
2018-03-15T20:37:52.195Z,9.40
2018-03-15T20:40:40.008Z,9.30
2018-03-15T20:43:08.934Z,9.20
2018-03-15T20:45:43.336Z,9.00
2018-03-15T20:48:20.483Z,8.90
2018-03-15T20:50:49.557Z,8.80
2018-03-15T20:53:18.571Z,8.80
2018-03-15T20:55:47.577Z,8.70
2018-03-15T20:58:16.561Z,8.60
2018-03-15T21:00:45.420Z,8.60
2018-03-15T21:03:14.548Z,8.60
2018-03-15T21:05:43.706Z,8.60
2018-03-15T21:08:12.569Z,8.60
2018-03-15T21:10:41.748Z,8.60
2018-03-15T21:13:10.744Z,8.60
2018-03-15T21:15:40.483Z,8.50
2018-03-15T21:18:10.895Z,8.60
2018-03-15T21:20:40.048Z,8.60
2018-03-15T21:23:08.900Z,8.60
2018-03-15T21:25:39.058Z,8.50
2018-03-15T21:28:08.330Z,8.50
2018-03-15T21:30:37.983Z,8.50
2018-03-15T21:33:07.717Z,8.60
2018-03-15T21:35:36.509Z,8.50
2018-03-15T21:38:05.380Z,8.60
2018-03-15T21:40:34.154Z,8.50
2018-03-15T21:43:03.149Z,8.50
2018-03-15T21:45:32.884Z,8.50
2018-03-15T21:48:01.825Z,8.40
2018-03-15T21:50:31.351Z,8.50
2018-03-15T21:53:00.293Z,8.40
2018-03-15T21:55:29.091Z,8.50
2018-03-15T21:57:57.969Z,8.50
2018-03-15T22:00:28.116Z,8.50
2018-03-15T22:02:56.959Z,8.50
2018-03-15T22:05:25.898Z,8.60
2018-03-15T22:07:54.866Z,8.60
2018-03-15T22:10:23.698Z,8.60
2018-03-15T22:12:52.501Z,8.60
2018-03-15T22:15:22.159Z,8.50
2018-03-15T22:17:51.021Z,8.50
2018-03-15T22:20:20.108Z,8.50
2018-03-15T22:22:49.043Z,8.50
2018-03-15T22:25:18.488Z,8.50
2018-03-15T22:27:47.859Z,8.40
2018-03-15T22:30:16.763Z,8.30
2018-03-15T22:32:45.679Z,8.40
2018-03-15T22:35:15.552Z,8.40
2018-03-15T22:37:45.256Z,8.40
2018-03-15T22:40:15.384Z,8.30
2018-03-15T22:42:44.529Z,8.30
2018-03-15T22:45:14.273Z,8.20
2018-03-15T22:47:43.973Z,8.20
2018-03-15T22:50:12.925Z,8.20
2018-03-15T22:52:42.720Z,8.20
2018-03-15T22:55:11.653Z,8.20
2018-03-15T22:57:40.752Z,8.20
2018-03-15T23:00:10.523Z,8.20
2018-03-15T23:02:39.310Z,8.20
2018-03-15T23:05:08.378Z,8.20
2018-03-15T23:07:37.252Z,8.20
2018-03-15T23:10:06.468Z,8.20
2018-03-15T23:12:35.313Z,8.20
2018-03-15T23:15:04.211Z,8.20
2018-03-15T23:17:33.430Z,8.20
2018-03-15T23:20:02.168Z,8.20
2018-03-15T23:22:31.356Z,8.20
2018-03-15T23:25:01.040Z,8.20
2018-03-15T23:27:30.226Z,8.10
2018-03-15T23:29:59.375Z,8.10
2018-03-15T23:32:29.086Z,7.90
2018-03-15T23:34:58.040Z,7.80
2018-03-15T23:37:26.849Z,7.80
2018-03-15T23:39:56.576Z,7.70
2018-03-15T23:42:25.531Z,7.60
2018-03-15T23:44:54.320Z,7.60
2018-03-15T23:47:23.576Z,7.60
2018-03-15T23:49:52.587Z,7.60
2018-03-15T23:52:22.170Z,7.50
2018-03-15T23:54:51.772Z,7.50
2018-03-15T23:57:20.447Z,7.40
2018-03-15T23:59:49.458Z,7.50
